Island Crown — CFK9388 — position and weather

sailwx.info

Track history (hours):
 
Tides and Currents Weather Stations Pressure Air Temp Water Temp Dewpoint Dewpoint Depression Visibility Wind Speed Wind Dir Waves Ship Positions

Island Crown

Last reported at 2018-Feb-17 19:01 UTC. Time now 2018-Feb-17 19:18 UTC.
Position N 49°19' W 123°06'.

Length 23 m; draft 4 m.

Type: Tug. MMSI: 316001221.

Date/timePositionNaut miles runAvg speedWind from/ knotsBaromVisibWave heightAir tempDewpointWater temp
2018-Feb-17 19:01N 49°19' W 123°06'3 6.9
2018-Feb-17 18:31N 49°18' W 123°01'2 3.7
2018-Feb-17 18:00N 49°17' W 122°58'0 0.0
2018-Feb-17 17:30N 49°17' W 122°58'0 0.0
2018-Feb-17 17:00N 49°17' W 122°58'0 0.0
2018-Feb-17 16:31N 49°17' W 122°58'0 0.2
2018-Feb-17 16:01N 49°18' W 122°58'3 7.0
2018-Feb-17 15:30N 49°18' W 123°04'3 5.0
2018-Feb-17 15:00N 49°19' W 123°07'2 3.8
2018-Feb-17 14:30N 49°18' W 123°05'3 5.1
2018-Feb-17 14:01N 49°18' W 123°01'1 3.0
2018-Feb-17 13:31N 49°18' W 122°58'0 0.0
2018-Feb-17 13:01N 49°18' W 122°58'0 0.0
2018-Feb-17 12:30N 49°18' W 122°58'0 0.0
2018-Feb-17 12:00N 49°18' W 122°58'0 0.0
2018-Feb-17 11:31N 49°18' W 122°58'0 0.0
2018-Feb-17 11:00N 49°18' W 122°58'0 0.0
2018-Feb-17 10:31N 49°17' W 122°58'0 0.0
2018-Feb-17 10:01N 49°17' W 122°58'0 0.0
2018-Feb-17 09:27N 49°17' W 122°58'0 0.0
2018-Feb-17 08:59N 49°18' W 122°58'0 0.0
2018-Feb-17 08:30N 49°18' W 122°58'0 0.0
2018-Feb-17 08:00N 49°18' W 122°58'0 0.4
2018-Feb-17 07:30N 49°18' W 122°59'0 0.4
2018-Feb-17 07:00N 49°18' W 122°58'0 0.0
2018-Feb-17 06:30N 49°18' W 122°58'0 0.0
2018-Feb-17 06:00N 49°18' W 122°58'0 0.0
2018-Feb-17 05:30N 49°18' W 122°58'0 0.0
2018-Feb-17 05:00N 49°18' W 122°58'0 0.0
2018-Feb-17 04:31N 49°18' W 122°58'0 0.0
2018-Feb-17 04:00N 49°18' W 122°58'0 0.7
2018-Feb-17 03:30N 49°18' W 122°59'0 0.7
2018-Feb-17 03:00N 49°17' W 122°58'0 0.1
2018-Feb-17 02:30N 49°17' W 122°58'0 0.1
2018-Feb-17 02:01N 49°17' W 122°58'0 0.0
2018-Feb-17 01:30N 49°17' W 122°58'0 0.0
2018-Feb-17 01:01N 49°17' W 122°58'2 0.1
2018-Feb-16 02:01N 49°18' W 122°56'011.3
2018-Feb-16 02:00N 49°18' W 122°56'1 2.1
2018-Feb-16 01:30N 49°17' W 122°54'3 5.3
2018-Feb-16 01:00N 49°17' W 122°58'1 2.7
2018-Feb-16 00:30N 49°18' W 123°00'0 0.4
2018-Feb-16 00:00N 49°18' W 123°00'0 0.0
2018-Feb-15 23:30N 49°18' W 123°00'1 2.4
2018-Feb-15 23:00N 49°17' W 122°58'0 0.0
2018-Feb-15 22:30N 49°17' W 122°58'0 0.0
2018-Feb-15 22:00N 49°17' W 122°58'0 0.0
2018-Feb-15 21:30N 49°17' W 122°58'0 0.1
2018-Feb-15 21:00N 49°18' W 122°58'0 0.4
2018-Feb-15 20:30N 49°18' W 122°58'0 0.5
2018-Feb-15 20:00N 49°17' W 122°58'0 0.1
2018-Feb-15 19:30N 49°17' W 122°58'0 0.1
2018-Feb-15 19:00N 49°17' W 122°58'0 0.0
2018-Feb-15 18:30N 49°17' W 122°58'0 0.0
2018-Feb-15 18:00N 49°17' W 122°58'0 0.0
2018-Feb-15 17:30N 49°17' W 122°58'0 0.0
2018-Feb-15 17:00N 49°17' W 122°58'0 0.0
2018-Feb-15 16:30N 49°17' W 122°58'0 0.0
2018-Feb-15 16:00N 49°17' W 122°58'3 6.0
2018-Feb-15 15:30N 49°17' W 122°54'1 1.2
2018-Feb-15 15:00N 49°17' W 122°55'3 5.0
2018-Feb-15 14:30N 49°18' W 122°59'0 0.3
2018-Feb-15 14:00N 49°17' W 122°58'0 0.0
2018-Feb-15 13:30N 49°17' W 122°58'0 0.0
2018-Feb-15 13:00N 49°17' W 122°58'0 0.0
2018-Feb-15 12:30N 49°17' W 122°58'0 0.0
2018-Feb-15 12:00N 49°17' W 122°58'0 0.0
2018-Feb-15 11:30N 49°17' W 122°58'0 0.0
2018-Feb-15 10:59N 49°17' W 122°58'0 0.0
2018-Feb-15 10:30N 49°17' W 122°58'0 0.0
2018-Feb-15 10:00N 49°17' W 122°58'0 0.0
2018-Feb-15 09:30N 49°17' W 122°58'0 0.0
2018-Feb-15 09:00N 49°17' W 122°58'0 0.0
2018-Feb-15 08:30N 49°17' W 122°58'0 0.0
2018-Feb-15 08:00N 49°17' W 122°58'0 0.0
2018-Feb-15 07:30N 49°17' W 122°58'0 0.0
2018-Feb-15 07:00N 49°17' W 122°58'0 0.0
2018-Feb-15 06:30N 49°17' W 122°58'0 0.0
2018-Feb-15 06:00N 49°17' W 122°58'0 0.0
2018-Feb-15 05:30N 49°17' W 122°58'0 0.0
2018-Feb-15 05:00N 49°17' W 122°58'0 0.0
2018-Feb-15 04:30N 49°17' W 122°58'0 0.0
2018-Feb-15 04:00N 49°17' W 122°58'0 0.0
2018-Feb-15 03:30N 49°17' W 122°58'0 0.9
2018-Feb-15 03:00N 49°18' W 122°59'0 0.9
2018-Feb-15 02:30N 49°17' W 122°58'0 0.0
2018-Feb-15 01:59N 49°17' W 122°58'0 0.0
2018-Feb-15 01:30N 49°17' W 122°58'0 0.0
2018-Feb-15 00:59N 49°17' W 122°58'0 0.0
2018-Feb-15 00:29N 49°17' W 122°58'0 0.0
2018-Feb-14 06:34N 49°18' W 122°58'0 0.5
2018-Feb-14 06:30N 49°18' W 122°58'0 0.2
2018-Feb-14 06:00N 49°18' W 122°59'0 0.2
2018-Feb-14 05:30N 49°17' W 122°58'0 0.0
2018-Feb-14 05:00N 49°17' W 122°58'0 0.0
2018-Feb-14 04:30N 49°17' W 122°58'0 0.0
2018-Feb-14 03:59N 49°17' W 122°58'0 0.2
2018-Feb-14 03:30N 49°18' W 122°58'0 0.3
2018-Feb-14 03:00N 49°17' W 122°58'0 0.0
2018-Feb-14 02:30N 49°17' W 122°58'0 0.0
2018-Feb-14 02:00N 49°17' W 122°58'3 6.1
2018-Feb-14 01:30N 49°17' W 122°54'0 0.0
2018-Feb-14 01:00N 49°17' W 122°54'0 0.0
2018-Feb-14 00:30N 49°17' W 122°54'2 3.7
2018-Feb-13 23:58N 49°18' W 122°57'1 2.2
2018-Feb-13 23:30N 49°17' W 122°58'0 0.0
2018-Feb-13 23:00N 49°17' W 122°58'0 0.0
2018-Feb-13 22:30N 49°17' W 122°58'0 0.0
2018-Feb-13 22:00N 49°17' W 122°58'2 4.7
2018-Feb-13 21:30N 49°18' W 122°55'1 1.2
2018-Feb-13 21:00N 49°18' W 122°56'2 3.8
2018-Feb-13 20:30N 49°17' W 122°58'0 0.1
2018-Feb-13 20:00N 49°17' W 122°58'0 0.0
2018-Feb-13 19:30N 49°17' W 122°58'0 0.0
2018-Feb-13 19:00N 49°17' W 122°58'0 0.0
2018-Feb-13 18:30N 49°17' W 122°58'0 0.0
2018-Feb-13 18:00N 49°17' W 122°58'0 0.0
2018-Feb-13 17:30N 49°17' W 122°58'0 0.0
2018-Feb-13 17:00N 49°17' W 122°58'2 4.7
2018-Feb-13 16:29N 49°17' W 122°55'1 1.1
2018-Feb-13 15:59N 49°17' W 122°54'0 0.1
2018-Feb-13 15:30N 49°17' W 122°54'1 1.5
2018-Feb-13 15:00N 49°18' W 122°55'2 3.6
2018-Feb-13 14:30N 49°18' W 122°58'1 1.2
2018-Feb-13 14:00N 49°17' W 122°58'0 0.0
2018-Feb-13 13:30N 49°17' W 122°58'0 0.0
2018-Feb-13 13:00N 49°17' W 122°58'0 0.0
2018-Feb-13 12:30N 49°17' W 122°58'0 0.0
2018-Feb-13 12:00N 49°17' W 122°58'0 0.0
2018-Feb-13 11:30N 49°17' W 122°58'0 0.0
2018-Feb-13 11:00N 49°17' W 122°58'0 0.0
2018-Feb-13 10:30N 49°17' W 122°58'0 0.0
2018-Feb-13 10:00N 49°17' W 122°58'0 0.0
2018-Feb-13 09:29N 49°17' W 122°58'0 0.0
2018-Feb-13 09:00N 49°17' W 122°58'0 0.0
2018-Feb-13 08:30N 49°17' W 122°58'0 0.0
2018-Feb-13 08:00N 49°17' W 122°58'0 0.0
2018-Feb-13 07:30N 49°17' W 122°58'0 0.0
2018-Feb-13 07:00N 49°17' W 122°58'0 0.0
2018-Feb-13 06:30N 49°17' W 122°58'0 0.0
2018-Feb-13 05:59N 49°17' W 122°58'1 1.1
2018-Feb-13 05:30N 49°18' W 122°59'0 1.0
2018-Feb-13 05:00N 49°17' W 122°58'0 0.0
2018-Feb-13 04:30N 49°17' W 122°58'0 0.0
2018-Feb-13 04:00N 49°17' W 122°58'0 0.0
2018-Feb-13 03:30N 49°17' W 122°58'0 0.0
2018-Feb-13 03:00N 49°17' W 122°58'0 0.1
2018-Feb-13 02:30N 49°17' W 122°58'0 0.0
2018-Feb-13 02:00N 49°17' W 122°58'0 0.0
2018-Feb-13 01:30N 49°17' W 122°58'0 0.0
2018-Feb-13 01:00N 49°17' W 122°58'0 0.0
2018-Feb-13 00:30N 49°17' W 122°58'0 0.0
2018-Feb-13 00:00N 49°17' W 122°58'0 0.0
2018-Feb-12 23:30N 49°17' W 122°58'0 0.0
2018-Feb-12 23:00N 49°17' W 122°58'0 0.0
2018-Feb-12 22:30N 49°17' W 122°58'0 0.0
2018-Feb-12 22:00N 49°17' W 122°58'0 0.0
2018-Feb-12 21:30N 49°17' W 122°58'0 0.0
2018-Feb-12 21:00N 49°17' W 122°58'0 0.0
2018-Feb-12 20:30N 49°17' W 122°58'0 0.0
2018-Feb-12 20:00N 49°17' W 122°58'1 1.6
2018-Feb-12 19:30N 49°18' W 122°60'1 2.7
2018-Feb-12 19:00N 49°18' W 123°02'1 1.4
2018-Feb-12 18:30N 49°18' W 123°01'0 0.0
2018-Feb-12 18:00N 49°18' W 123°01'1 3.0
2018-Feb-12 17:30N 49°17' W 122°58'0 0.0
2018-Feb-12 17:00N 49°17' W 122°58'0 0.0
2018-Feb-12 16:30N 49°17' W 122°58'0 0.4
2018-Feb-12 15:59N 49°18' W 122°58'3 6.0
2018-Feb-12 15:30N 49°17' W 122°54'1 2.7
2018-Feb-12 15:00N 49°18' W 122°56'2 3.2
2018-Feb-12 14:30N 49°18' W 122°58'0 0.1
2018-Feb-12 14:00N 49°17' W 122°58'0 0.0
2018-Feb-12 13:30N 49°17' W 122°58'0 0.0
2018-Feb-12 13:00N 49°17' W 122°58'0 0.0
2018-Feb-12 12:30N 49°17' W 122°58'0 0.0
2018-Feb-12 12:00N 49°17' W 122°58'0 0.0
2018-Feb-12 11:30N 49°17' W 122°58'0 0.0
2018-Feb-12 11:00N 49°17' W 122°58'0 0.0
2018-Feb-12 10:30N 49°17' W 122°58'0 0.0
2018-Feb-12 10:00N 49°17' W 122°58'0 0.0
2018-Feb-12 09:31N 49°17' W 122°58'0 0.0
2018-Feb-12 09:00N 49°17' W 122°58'0 0.0
2018-Feb-12 08:30N 49°17' W 122°58'0 0.0
2018-Feb-12 08:00N 49°17' W 122°58'0 0.0
2018-Feb-12 07:30N 49°17' W 122°58'0 0.0
2018-Feb-12 07:00N 49°17' W 122°58'0 0.1
2018-Feb-12 06:30N 49°17' W 122°58'0 0.0
2018-Feb-12 06:00N 49°17' W 122°58'0 0.1
2018-Feb-12 05:30N 49°18' W 122°58'0 0.5
2018-Feb-12 05:00N 49°18' W 122°59'0 0.6
2018-Feb-12 04:30N 49°17' W 122°58'0 0.0
2018-Feb-12 04:00N 49°17' W 122°58'0 0.0
2018-Feb-12 03:30N 49°17' W 122°58'0 0.0
2018-Feb-12 03:00N 49°17' W 122°58'0 0.0
2018-Feb-12 02:30N 49°17' W 122°58'0 0.0
2018-Feb-12 02:00N 49°17' W 122°58'0 0.0
2018-Feb-12 01:29N 49°17' W 122°58'0 0.1
2018-Feb-12 01:00N 49°17' W 122°58'2 4.8
2018-Feb-12 00:30N 49°18' W 123°02'3 7.0
2018-Feb-12 00:00N 49°19' W 123°07'0 0.0
2018-Feb-11 23:30N 49°19' W 123°07'2 4.0
2018-Feb-11 23:00N 49°18' W 123°04'4 7.9
2018-Feb-11 22:30N 49°17' W 122°58'0 0.0
2018-Feb-11 22:00N 49°17' W 122°58'0 0.0
2018-Feb-11 21:30N 49°17' W 122°58'0 0.0
2018-Feb-11 21:00N 49°17' W 122°58'0 0.0
2018-Feb-11 20:30N 49°17' W 122°58'0 0.0
2018-Feb-11 20:00N 49°17' W 122°58'0 0.0
2018-Feb-11 19:30N 49°17' W 122°58'3 5.8
2018-Feb-11 19:00N 49°17' W 122°54'2 3.2
2018-Feb-11 18:30N 49°18' W 122°56'1 2.8
2018-Feb-11 18:00N 49°17' W 122°58'0 0.1
2018-Feb-11 17:30N 49°17' W 122°58'0 0.0
2018-Feb-11 17:00N 49°17' W 122°58'0 0.0
2018-Feb-11 16:30N 49°17' W 122°58'0 0.0
2018-Feb-11 16:00N 49°17' W 122°58'3 6.5
2018-Feb-11 15:30N 49°18' W 123°03'3 5.4
2018-Feb-11 15:00N 49°19' W 123°07'2 3.1
2018-Feb-11 14:30N 49°18' W 123°05'4 8.9
2018-Feb-11 14:00N 49°18' W 122°58'0 0.1
2018-Feb-11 13:30N 49°18' W 122°58'0 0.2
2018-Feb-11 13:00N 49°17' W 122°58'0 0.0
2018-Feb-11 12:30N 49°17' W 122°58'0 0.0
2018-Feb-11 12:00N 49°17' W 122°58'0 0.0
2018-Feb-11 11:30N 49°17' W 122°58'0 0.0
2018-Feb-11 11:00N 49°17' W 122°58'0 0.0
2018-Feb-11 10:30N 49°17' W 122°58'0 0.0
2018-Feb-11 09:59N 49°17' W 122°58'0 0.0
2018-Feb-11 09:30N 49°17' W 122°58'0 0.0
2018-Feb-11 09:00N 49°17' W 122°58'0 0.0
2018-Feb-11 08:30N 49°17' W 122°58'0 0.0
2018-Feb-11 08:00N 49°17' W 122°58'0 0.0
2018-Feb-11 07:30N 49°17' W 122°58'0 0.0
2018-Feb-11 07:00N 49°17' W 122°58'0 0.0
2018-Feb-11 06:30N 49°17' W 122°58'0 0.0
2018-Feb-11 06:00N 49°17' W 122°58'0 0.4
2018-Feb-11 05:30N 49°18' W 122°59'0 0.4
2018-Feb-11 05:00N 49°17' W 122°58'0 0.0
2018-Feb-11 04:30N 49°17' W 122°58'0 0.0
2018-Feb-11 04:00N 49°17' W 122°58'0 0.0
2018-Feb-11 03:30N 49°17' W 122°58'0 0.0
2018-Feb-11 02:59N 49°17' W 122°58'0 0.0
2018-Feb-11 02:30N 49°17' W 122°58'0 0.0
2018-Feb-11 02:00N 49°17' W 122°58'0 0.0
2018-Feb-11 01:30N 49°17' W 122°58'1 0.1
2018-Feb-10 13:25N 49°18' W 123°00'2 5.0
2018-Feb-10 13:00N 49°18' W 123°04'1 1.0
2018-Feb-10 12:30N 49°17' W 123°04'0 0.0
2018-Feb-10 12:00N 49°17' W 123°04'0 0.0
2018-Feb-10 11:30N 49°17' W 123°04'0 0.0
2018-Feb-10 11:00N 49°17' W 123°04'0 0.0
2018-Feb-10 10:30N 49°17' W 123°04'0 0.0
2018-Feb-10 09:59N 49°17' W 123°04'0 0.0
2018-Feb-10 09:30N 49°17' W 123°04'0 0.0
2018-Feb-10 09:00N 49°17' W 123°04'0 0.0
2018-Feb-10 08:30N 49°17' W 123°04'2 4.4
2018-Feb-10 08:00N 49°18' W 123°01'2 3.0
2018-Feb-10 07:30N 49°18' W 122°58'0 0.0
2018-Feb-10 07:00N 49°18' W 122°58'0 0.4
2018-Feb-10 06:30N 49°18' W 122°59'0 0.4
2018-Feb-10 06:00N 49°17' W 122°58'0 0.0
2018-Feb-10 05:30N 49°17' W 122°58'0 0.0
2018-Feb-10 04:59N 49°17' W 122°58'0 0.0
2018-Feb-10 04:30N 49°17' W 122°58'0 0.0
2018-Feb-10 04:00N 49°17' W 122°58'0 0.9
2018-Feb-10 03:30N 49°18' W 122°58'3 5.3
2018-Feb-10 03:00N 49°17' W 122°54'3 5.4
2018-Feb-10 02:29N 49°18' W 122°58'0 0.4
2018-Feb-10 02:00N 49°17' W 122°58'0 0.0
2018-Feb-10 01:30N 49°17' W 122°58'0 0.1
2018-Feb-10 01:00N 49°17' W 122°58'0 0.1
2018-Feb-10 00:30N 49°17' W 122°58'0 0.0
2018-Feb-09 23:59N 49°17' W 122°58'0 0.0
2018-Feb-09 23:30N 49°17' W 122°58'0 0.0
2018-Feb-09 23:00N 49°17' W 122°58'0 0.0
2018-Feb-09 22:45N 49°17' W 122°58'0 0.0
2018-Feb-09 22:30N 49°17' W 122°58'0 0.0
2018-Feb-09 21:00N 49°17' W 122°58'0 0.0
2018-Feb-09 16:30N 49°17' W 122°58'1 0.7
2018-Feb-09 14:30N 49°18' W 122°56'1 0.2
2018-Feb-09 08:00N 49°17' W 122°58'0 0.0
2018-Feb-09 05:00N 49°17' W 122°58'0 0.0
2018-Feb-09 01:30N 49°17' W 122°58'3 0.4
2018-Feb-08 16:30N 49°18' W 123°04'2 4.6
2018-Feb-08 16:00N 49°18' W 123°07'1 0.6
2018-Feb-08 15:00N 49°17' W 123°06'5 0.4
2018-Feb-08 03:00N 49°17' W 122°58'0 0.0
2018-Feb-08 01:30N 49°17' W 122°58'0 0.0
2018-Feb-08 01:00N 49°17' W 122°58'0 0.0
2018-Feb-08 00:30N 49°17' W 122°58'0 0.0
2018-Feb-08 00:00N 49°17' W 122°58'0 0.0
2018-Feb-07 23:30N 49°17' W 122°58'0 0.0
2018-Feb-07 23:00N 49°17' W 122°58'0 0.0
2018-Feb-07 22:30N 49°17' W 122°58'0 0.0
2018-Feb-07 22:00N 49°17' W 122°58'0 0.0
2018-Feb-07 21:31N 49°17' W 122°58'  
Track history (hours):
 
Tides and Currents Weather Stations Pressure Air Temp Water Temp Dewpoint Dewpoint Depression Visibility Wind Speed Wind Dir Waves Ship Positions

Island Crown

Last reported at 2018-Feb-17 19:01 UTC. Time now 2018-Feb-17 19:18 UTC.
Position N 49°19' W 123°06'.

Length 23 m; draft 4 m.

Type: Tug. MMSI: 316001221.

Date/timePositionNaut miles runAvg speedWind from/ knotsBaromVisibWave heightAir tempDewpointWater temp
2018-Feb-17 19:01N 49°19' W 123°06'3 6.9
2018-Feb-17 18:31N 49°18' W 123°01'2 3.7
2018-Feb-17 18:00N 49°17' W 122°58'0 0.0
2018-Feb-17 17:30N 49°17' W 122°58'0 0.0
2018-Feb-17 17:00N 49°17' W 122°58'0 0.0
2018-Feb-17 16:31N 49°17' W 122°58'0 0.2
2018-Feb-17 16:01N 49°18' W 122°58'3 7.0
2018-Feb-17 15:30N 49°18' W 123°04'3 5.0
2018-Feb-17 15:00N 49°19' W 123°07'2 3.8
2018-Feb-17 14:30N 49°18' W 123°05'3 5.1
2018-Feb-17 14:01N 49°18' W 123°01'1 3.0
2018-Feb-17 13:31N 49°18' W 122°58'0 0.0
2018-Feb-17 13:01N 49°18' W 122°58'0 0.0
2018-Feb-17 12:30N 49°18' W 122°58'0 0.0
2018-Feb-17 12:00N 49°18' W 122°58'0 0.0
2018-Feb-17 11:31N 49°18' W 122°58'0 0.0
2018-Feb-17 11:00N 49°18' W 122°58'0 0.0
2018-Feb-17 10:31N 49°17' W 122°58'0 0.0
2018-Feb-17 10:01N 49°17' W 122°58'0 0.0
2018-Feb-17 09:27N 49°17' W 122°58'0 0.0
2018-Feb-17 08:59N 49°18' W 122°58'0 0.0
2018-Feb-17 08:30N 49°18' W 122°58'0 0.0
2018-Feb-17 08:00N 49°18' W 122°58'0 0.4
2018-Feb-17 07:30N 49°18' W 122°59'0 0.4
2018-Feb-17 07:00N 49°18' W 122°58'0 0.0
2018-Feb-17 06:30N 49°18' W 122°58'0 0.0
2018-Feb-17 06:00N 49°18' W 122°58'0 0.0
2018-Feb-17 05:30N 49°18' W 122°58'0 0.0
2018-Feb-17 05:00N 49°18' W 122°58'0 0.0
2018-Feb-17 04:31N 49°18' W 122°58'0 0.0
2018-Feb-17 04:00N 49°18' W 122°58'0 0.7
2018-Feb-17 03:30N 49°18' W 122°59'0 0.7
2018-Feb-17 03:00N 49°17' W 122°58'0 0.1
2018-Feb-17 02:30N 49°17' W 122°58'0 0.1
2018-Feb-17 02:01N 49°17' W 122°58'0 0.0
2018-Feb-17 01:30N 49°17' W 122°58'0 0.0
2018-Feb-17 01:01N 49°17' W 122°58'2 0.1
2018-Feb-16 02:01N 49°18' W 122°56'011.3
2018-Feb-16 02:00N 49°18' W 122°56'1 2.1
2018-Feb-16 01:30N 49°17' W 122°54'3 5.3
2018-Feb-16 01:00N 49°17' W 122°58'1 2.7
2018-Feb-16 00:30N 49°18' W 123°00'0 0.4
2018-Feb-16 00:00N 49°18' W 123°00'0 0.0
2018-Feb-15 23:30N 49°18' W 123°00'1 2.4
2018-Feb-15 23:00N 49°17' W 122°58'0 0.0
2018-Feb-15 22:30N 49°17' W 122°58'0 0.0
2018-Feb-15 22:00N 49°17' W 122°58'0 0.0
2018-Feb-15 21:30N 49°17' W 122°58'0 0.1
2018-Feb-15 21:00N 49°18' W 122°58'0 0.4
2018-Feb-15 20:30N 49°18' W 122°58'0 0.5
2018-Feb-15 20:00N 49°17' W 122°58'0 0.1
2018-Feb-15 19:30N 49°17' W 122°58'0 0.1
2018-Feb-15 19:00N 49°17' W 122°58'0 0.0
2018-Feb-15 18:30N 49°17' W 122°58'0 0.0
2018-Feb-15 18:00N 49°17' W 122°58'0 0.0
2018-Feb-15 17:30N 49°17' W 122°58'0 0.0
2018-Feb-15 17:00N 49°17' W 122°58'0 0.0
2018-Feb-15 16:30N 49°17' W 122°58'0 0.0
2018-Feb-15 16:00N 49°17' W 122°58'3 6.0
2018-Feb-15 15:30N 49°17' W 122°54'1 1.2
2018-Feb-15 15:00N 49°17' W 122°55'3 5.0
2018-Feb-15 14:30N 49°18' W 122°59'0 0.3
2018-Feb-15 14:00N 49°17' W 122°58'0 0.0
2018-Feb-15 13:30N 49°17' W 122°58'0 0.0
2018-Feb-15 13:00N 49°17' W 122°58'0 0.0
2018-Feb-15 12:30N 49°17' W 122°58'0 0.0
2018-Feb-15 12:00N 49°17' W 122°58'0 0.0
2018-Feb-15 11:30N 49°17' W 122°58'0 0.0
2018-Feb-15 10:59N 49°17' W 122°58'0 0.0
2018-Feb-15 10:30N 49°17' W 122°58'0 0.0
2018-Feb-15 10:00N 49°17' W 122°58'0 0.0
2018-Feb-15 09:30N 49°17' W 122°58'0 0.0
2018-Feb-15 09:00N 49°17' W 122°58'0 0.0
2018-Feb-15 08:30N 49°17' W 122°58'0 0.0
2018-Feb-15 08:00N 49°17' W 122°58'0 0.0
2018-Feb-15 07:30N 49°17' W 122°58'0 0.0
2018-Feb-15 07:00N 49°17' W 122°58'0 0.0
2018-Feb-15 06:30N 49°17' W 122°58'0 0.0
2018-Feb-15 06:00N 49°17' W 122°58'0 0.0
2018-Feb-15 05:30N 49°17' W 122°58'0 0.0
2018-Feb-15 05:00N 49°17' W 122°58'0 0.0
2018-Feb-15 04:30N 49°17' W 122°58'0 0.0
2018-Feb-15 04:00N 49°17' W 122°58'0 0.0
2018-Feb-15 03:30N 49°17' W 122°58'0 0.9
2018-Feb-15 03:00N 49°18' W 122°59'0 0.9
2018-Feb-15 02:30N 49°17' W 122°58'0 0.0
2018-Feb-15 01:59N 49°17' W 122°58'0 0.0
2018-Feb-15 01:30N 49°17' W 122°58'0 0.0
2018-Feb-15 00:59N 49°17' W 122°58'0 0.0
2018-Feb-15 00:29N 49°17' W 122°58'0 0.0
2018-Feb-14 06:34N 49°18' W 122°58'0 0.5
2018-Feb-14 06:30N 49°18' W 122°58'0 0.2
2018-Feb-14 06:00N 49°18' W 122°59'0 0.2
2018-Feb-14 05:30N 49°17' W 122°58'0 0.0
2018-Feb-14 05:00N 49°17' W 122°58'0 0.0
2018-Feb-14 04:30N 49°17' W 122°58'0 0.0
2018-Feb-14 03:59N 49°17' W 122°58'0 0.2
2018-Feb-14 03:30N 49°18' W 122°58'0 0.3
2018-Feb-14 03:00N 49°17' W 122°58'0 0.0
2018-Feb-14 02:30N 49°17' W 122°58'0 0.0
2018-Feb-14 02:00N 49°17' W 122°58'3 6.1
2018-Feb-14 01:30N 49°17' W 122°54'0 0.0
2018-Feb-14 01:00N 49°17' W 122°54'0 0.0
2018-Feb-14 00:30N 49°17' W 122°54'2 3.7
2018-Feb-13 23:58N 49°18' W 122°57'1 2.2
2018-Feb-13 23:30N 49°17' W 122°58'0 0.0
2018-Feb-13 23:00N 49°17' W 122°58'0 0.0
2018-Feb-13 22:30N 49°17' W 122°58'0 0.0
2018-Feb-13 22:00N 49°17' W 122°58'2 4.7
2018-Feb-13 21:30N 49°18' W 122°55'1 1.2
2018-Feb-13 21:00N 49°18' W 122°56'2 3.8
2018-Feb-13 20:30N 49°17' W 122°58'0 0.1
2018-Feb-13 20:00N 49°17' W 122°58'0 0.0
2018-Feb-13 19:30N 49°17' W 122°58'0 0.0
2018-Feb-13 19:00N 49°17' W 122°58'0 0.0
2018-Feb-13 18:30N 49°17' W 122°58'0 0.0
2018-Feb-13 18:00N 49°17' W 122°58'0 0.0
2018-Feb-13 17:30N 49°17' W 122°58'0 0.0
2018-Feb-13 17:00N 49°17' W 122°58'2 4.7
2018-Feb-13 16:29N 49°17' W 122°55'1 1.1
2018-Feb-13 15:59N 49°17' W 122°54'0 0.1
2018-Feb-13 15:30N 49°17' W 122°54'1 1.5
2018-Feb-13 15:00N 49°18' W 122°55'2 3.6
2018-Feb-13 14:30N 49°18' W 122°58'1 1.2
2018-Feb-13 14:00N 49°17' W 122°58'0 0.0
2018-Feb-13 13:30N 49°17' W 122°58'0 0.0
2018-Feb-13 13:00N 49°17' W 122°58'0 0.0
2018-Feb-13 12:30N 49°17' W 122°58'0 0.0
2018-Feb-13 12:00N 49°17' W 122°58'0 0.0
2018-Feb-13 11:30N 49°17' W 122°58'0 0.0
2018-Feb-13 11:00N 49°17' W 122°58'0 0.0
2018-Feb-13 10:30N 49°17' W 122°58'0 0.0
2018-Feb-13 10:00N 49°17' W 122°58'0 0.0
2018-Feb-13 09:29N 49°17' W 122°58'0 0.0
2018-Feb-13 09:00N 49°17' W 122°58'0 0.0
2018-Feb-13 08:30N 49°17' W 122°58'0 0.0
2018-Feb-13 08:00N 49°17' W 122°58'0 0.0
2018-Feb-13 07:30N 49°17' W 122°58'0 0.0
2018-Feb-13 07:00N 49°17' W 122°58'0 0.0
2018-Feb-13 06:30N 49°17' W 122°58'0 0.0
2018-Feb-13 05:59N 49°17' W 122°58'1 1.1
2018-Feb-13 05:30N 49°18' W 122°59'0 1.0
2018-Feb-13 05:00N 49°17' W 122°58'0 0.0
2018-Feb-13 04:30N 49°17' W 122°58'0 0.0
2018-Feb-13 04:00N 49°17' W 122°58'0 0.0
2018-Feb-13 03:30N 49°17' W 122°58'0 0.0
2018-Feb-13 03:00N 49°17' W 122°58'0 0.1
2018-Feb-13 02:30N 49°17' W 122°58'0 0.0
2018-Feb-13 02:00N 49°17' W 122°58'0 0.0
2018-Feb-13 01:30N 49°17' W 122°58'0 0.0
2018-Feb-13 01:00N 49°17' W 122°58'0 0.0
2018-Feb-13 00:30N 49°17' W 122°58'0 0.0
2018-Feb-13 00:00N 49°17' W 122°58'0 0.0
2018-Feb-12 23:30N 49°17' W 122°58'0 0.0
2018-Feb-12 23:00N 49°17' W 122°58'0 0.0
2018-Feb-12 22:30N 49°17' W 122°58'0 0.0
2018-Feb-12 22:00N 49°17' W 122°58'0 0.0
2018-Feb-12 21:30N 49°17' W 122°58'0 0.0
2018-Feb-12 21:00N 49°17' W 122°58'0 0.0
2018-Feb-12 20:30N 49°17' W 122°58'0 0.0
2018-Feb-12 20:00N 49°17' W 122°58'1 1.6
2018-Feb-12 19:30N 49°18' W 122°60'1 2.7
2018-Feb-12 19:00N 49°18' W 123°02'1 1.4
2018-Feb-12 18:30N 49°18' W 123°01'0 0.0
2018-Feb-12 18:00N 49°18' W 123°01'1 3.0
2018-Feb-12 17:30N 49°17' W 122°58'0 0.0
2018-Feb-12 17:00N 49°17' W 122°58'0 0.0
2018-Feb-12 16:30N 49°17' W 122°58'0 0.4
2018-Feb-12 15:59N 49°18' W 122°58'3 6.0
2018-Feb-12 15:30N 49°17' W 122°54'1 2.7
2018-Feb-12 15:00N 49°18' W 122°56'2 3.2
2018-Feb-12 14:30N 49°18' W 122°58'0 0.1
2018-Feb-12 14:00N 49°17' W 122°58'0 0.0
2018-Feb-12 13:30N 49°17' W 122°58'0 0.0
2018-Feb-12 13:00N 49°17' W 122°58'0 0.0
2018-Feb-12 12:30N 49°17' W 122°58'0 0.0
2018-Feb-12 12:00N 49°17' W 122°58'0 0.0
2018-Feb-12 11:30N 49°17' W 122°58'0 0.0
2018-Feb-12 11:00N 49°17' W 122°58'0 0.0
2018-Feb-12 10:30N 49°17' W 122°58'0 0.0
2018-Feb-12 10:00N 49°17' W 122°58'0 0.0
2018-Feb-12 09:31N 49°17' W 122°58'0 0.0
2018-Feb-12 09:00N 49°17' W 122°58'0 0.0
2018-Feb-12 08:30N 49°17' W 122°58'0 0.0
2018-Feb-12 08:00N 49°17' W 122°58'0 0.0
2018-Feb-12 07:30N 49°17' W 122°58'0 0.0
2018-Feb-12 07:00N 49°17' W 122°58'0 0.1
2018-Feb-12 06:30N 49°17' W 122°58'0 0.0
2018-Feb-12 06:00N 49°17' W 122°58'0 0.1
2018-Feb-12 05:30N 49°18' W 122°58'0 0.5
2018-Feb-12 05:00N 49°18' W 122°59'0 0.6
2018-Feb-12 04:30N 49°17' W 122°58'0 0.0
2018-Feb-12 04:00N 49°17' W 122°58'0 0.0
2018-Feb-12 03:30N 49°17' W 122°58'0 0.0
2018-Feb-12 03:00N 49°17' W 122°58'0 0.0
2018-Feb-12 02:30N 49°17' W 122°58'0 0.0
2018-Feb-12 02:00N 49°17' W 122°58'0 0.0
2018-Feb-12 01:29N 49°17' W 122°58'0 0.1
2018-Feb-12 01:00N 49°17' W 122°58'2 4.8
2018-Feb-12 00:30N 49°18' W 123°02'3 7.0
2018-Feb-12 00:00N 49°19' W 123°07'0 0.0
2018-Feb-11 23:30N 49°19' W 123°07'2 4.0
2018-Feb-11 23:00N 49°18' W 123°04'4 7.9
2018-Feb-11 22:30N 49°17' W 122°58'0 0.0
2018-Feb-11 22:00N 49°17' W 122°58'0 0.0
2018-Feb-11 21:30N 49°17' W 122°58'0 0.0
2018-Feb-11 21:00N 49°17' W 122°58'0 0.0
2018-Feb-11 20:30N 49°17' W 122°58'0 0.0
2018-Feb-11 20:00N 49°17' W 122°58'0 0.0
2018-Feb-11 19:30N 49°17' W 122°58'3 5.8
2018-Feb-11 19:00N 49°17' W 122°54'2 3.2
2018-Feb-11 18:30N 49°18' W 122°56'1 2.8
2018-Feb-11 18:00N 49°17' W 122°58'0 0.1
2018-Feb-11 17:30N 49°17' W 122°58'0 0.0
2018-Feb-11 17:00N 49°17' W 122°58'0 0.0
2018-Feb-11 16:30N 49°17' W 122°58'0 0.0
2018-Feb-11 16:00N 49°17' W 122°58'3 6.5
2018-Feb-11 15:30N 49°18' W 123°03'3 5.4
2018-Feb-11 15:00N 49°19' W 123°07'2 3.1
2018-Feb-11 14:30N 49°18' W 123°05'4 8.9
2018-Feb-11 14:00N 49°18' W 122°58'0 0.1
2018-Feb-11 13:30N 49°18' W 122°58'0 0.2
2018-Feb-11 13:00N 49°17' W 122°58'0 0.0
2018-Feb-11 12:30N 49°17' W 122°58'0 0.0
2018-Feb-11 12:00N 49°17' W 122°58'0 0.0
2018-Feb-11 11:30N 49°17' W 122°58'0 0.0
2018-Feb-11 11:00N 49°17' W 122°58'0 0.0
2018-Feb-11 10:30N 49°17' W 122°58'0 0.0
2018-Feb-11 09:59N 49°17' W 122°58'0 0.0
2018-Feb-11 09:30N 49°17' W 122°58'0 0.0
2018-Feb-11 09:00N 49°17' W 122°58'0 0.0
2018-Feb-11 08:30N 49°17' W 122°58'0 0.0
2018-Feb-11 08:00N 49°17' W 122°58'0 0.0
2018-Feb-11 07:30N 49°17' W 122°58'0 0.0
2018-Feb-11 07:00N 49°17' W 122°58'0 0.0
2018-Feb-11 06:30N 49°17' W 122°58'0 0.0
2018-Feb-11 06:00N 49°17' W 122°58'0 0.4
2018-Feb-11 05:30N 49°18' W 122°59'0 0.4
2018-Feb-11 05:00N 49°17' W 122°58'0 0.0
2018-Feb-11 04:30N 49°17' W 122°58'0 0.0
2018-Feb-11 04:00N 49°17' W 122°58'0 0.0
2018-Feb-11 03:30N 49°17' W 122°58'0 0.0
2018-Feb-11 02:59N 49°17' W 122°58'0 0.0
2018-Feb-11 02:30N 49°17' W 122°58'0 0.0
2018-Feb-11 02:00N 49°17' W 122°58'0 0.0
2018-Feb-11 01:30N 49°17' W 122°58'1 0.1
2018-Feb-10 13:25N 49°18' W 123°00'2 5.0
2018-Feb-10 13:00N 49°18' W 123°04'1 1.0
2018-Feb-10 12:30N 49°17' W 123°04'0 0.0
2018-Feb-10 12:00N 49°17' W 123°04'0 0.0
2018-Feb-10 11:30N 49°17' W 123°04'0 0.0
2018-Feb-10 11:00N 49°17' W 123°04'0 0.0
2018-Feb-10 10:30N 49°17' W 123°04'0 0.0
2018-Feb-10 09:59N 49°17' W 123°04'0 0.0
2018-Feb-10 09:30N 49°17' W 123°04'0 0.0
2018-Feb-10 09:00N 49°17' W 123°04'0 0.0
2018-Feb-10 08:30N 49°17' W 123°04'2 4.4
2018-Feb-10 08:00N 49°18' W 123°01'2 3.0
2018-Feb-10 07:30N 49°18' W 122°58'0 0.0
2018-Feb-10 07:00N 49°18' W 122°58'0 0.4
2018-Feb-10 06:30N 49°18' W 122°59'0 0.4
2018-Feb-10 06:00N 49°17' W 122°58'0 0.0
2018-Feb-10 05:30N 49°17' W 122°58'0 0.0
2018-Feb-10 04:59N 49°17' W 122°58'0 0.0
2018-Feb-10 04:30N 49°17' W 122°58'0 0.0
2018-Feb-10 04:00N 49°17' W 122°58'0 0.9
2018-Feb-10 03:30N 49°18' W 122°58'3 5.3
2018-Feb-10 03:00N 49°17' W 122°54'3 5.4
2018-Feb-10 02:29N 49°18' W 122°58'0 0.4
2018-Feb-10 02:00N 49°17' W 122°58'0 0.0
2018-Feb-10 01:30N 49°17' W 122°58'0 0.1
2018-Feb-10 01:00N 49°17' W 122°58'0 0.1
2018-Feb-10 00:30N 49°17' W 122°58'0 0.0
2018-Feb-09 23:59N 49°17' W 122°58'0 0.0
2018-Feb-09 23:30N 49°17' W 122°58'0 0.0
2018-Feb-09 23:00N 49°17' W 122°58'0 0.0
2018-Feb-09 22:45N 49°17' W 122°58'0 0.0
2018-Feb-09 22:30N 49°17' W 122°58'0 0.0
2018-Feb-09 21:00N 49°17' W 122°58'0 0.0
2018-Feb-09 16:30N 49°17' W 122°58'1 0.7
2018-Feb-09 14:30N 49°18' W 122°56'1 0.2
2018-Feb-09 08:00N 49°17' W 122°58'0 0.0
2018-Feb-09 05:00N 49°17' W 122°58'0 0.0
2018-Feb-09 01:30N 49°17' W 122°58'3 0.4
2018-Feb-08 16:30N 49°18' W 123°04'2 4.6
2018-Feb-08 16:00N 49°18' W 123°07'1 0.6
2018-Feb-08 15:00N 49°17' W 123°06'5 0.4
2018-Feb-08 03:00N 49°17' W 122°58'0 0.0
2018-Feb-08 01:30N 49°17' W 122°58'0 0.0
2018-Feb-08 01:00N 49°17' W 122°58'0 0.0
2018-Feb-08 00:30N 49°17' W 122°58'0 0.0
2018-Feb-08 00:00N 49°17' W 122°58'0 0.0
2018-Feb-07 23:30N 49°17' W 122°58'0 0.0
2018-Feb-07 23:00N 49°17' W 122°58'0 0.0
2018-Feb-07 22:30N 49°17' W 122°58'0 0.0
2018-Feb-07 22:00N 49°17' W 122°58'0 0.0
2018-Feb-07 21:31N 49°17' W 122°58'  

Dump ship's entire track history